Nassau/Lynden Pindling International Airport


MYNN 190000Z 16004KT 9999 FEW020 SCT040 OVC200 27/24 A2992


TAF MYNN 181630Z 1818/1918 04005KT 9999 FEW015CB SCT020 BKN200 BECMG 1900/1902 13007KT PROB30 TEMPO 1903/1906 8000 SHRA FEW015CB BKN018

 

Freeport/Grand Bahama International Airport


MYGF 182300Z 21003KT 9999 FEW018 BKN220 27/24 A2991


TAF MYGF 181630Z 1818/1918 18008KT 9999 VCSH FEW015CB SCT018 BKN220 FM190600 12008KT 8000 SHRA FEW015CB BKN020 BKN200 PROB40 TEMPO 1909/1912 VRB25KT 5000 TSRA FEW012CB BKN018 BKN080

 

Providenciales International Airport


MBPV 182300Z 06004KT 9999 SCT012 28/24 Q1012


MBPV 181630Z 1818/1918 13006KT 9999 SCT020

Close Menu